createdAt,value
2023-04-24T00:01:52.767Z,2.92
2023-04-24T00:04:19.935Z,3.00
2023-04-24T00:06:50.394Z,3.80
2023-04-24T00:09:17.409Z,4.05
2023-04-24T00:11:44.325Z,3.20
2023-04-24T00:14:11.249Z,2.60
2023-04-24T00:16:38.230Z,3.05
2023-04-24T00:19:06.836Z,2.83
2023-04-24T00:21:33.775Z,2.55
2023-04-24T00:24:00.828Z,3.10
2023-04-24T00:26:27.822Z,2.78
2023-04-24T00:28:54.777Z,3.00
2023-04-24T00:31:22.121Z,3.78
2023-04-24T00:33:49.158Z,4.28
2023-04-24T00:36:16.068Z,3.05
2023-04-24T00:38:42.996Z,3.85
2023-04-24T00:41:09.992Z,3.75
2023-04-24T00:43:37.012Z,3.30
2023-04-24T00:46:04.084Z,3.05
2023-04-24T00:48:32.607Z,2.92
2023-04-24T00:50:59.794Z,4.25
2023-04-24T00:53:26.758Z,3.40
2023-04-24T00:55:53.823Z,3.75
2023-04-24T00:58:21.135Z,4.13
2023-04-24T01:00:49.978Z,3.55
2023-04-24T01:03:17.875Z,2.67
2023-04-24T01:05:44.875Z,2.88
2023-04-24T01:08:12.589Z,4.20
2023-04-24T01:10:42.164Z,4.50
2023-04-24T01:13:09.559Z,2.38
2023-04-24T01:15:36.808Z,2.85
2023-04-24T01:18:04.695Z,2.78
2023-04-24T01:20:32.896Z,2.92
2023-04-24T01:23:00.122Z,2.92
2023-04-24T01:25:28.590Z,3.22
2023-04-24T01:28:02.034Z,3.45
2023-04-24T01:30:29.652Z,3.05
2023-04-24T01:32:59.833Z,2.90
2023-04-24T01:35:27.112Z,3.35
2023-04-24T01:37:54.162Z,3.22
2023-04-24T01:40:21.252Z,2.70
2023-04-24T01:42:48.798Z,3.92
2023-04-24T01:45:15.693Z,2.78
2023-04-24T01:47:43.124Z,3.78
2023-04-24T01:50:10.728Z,2.70
2023-04-24T01:52:40.082Z,2.50
2023-04-24T01:55:08.122Z,3.78
2023-04-24T01:57:35.071Z,3.00
2023-04-24T02:00:02.392Z,4.13
2023-04-24T02:02:30.988Z,3.22
2023-04-24T02:04:58.467Z,2.85
2023-04-24T02:07:25.538Z,2.90
2023-04-24T02:09:52.454Z,3.75
2023-04-24T02:12:19.408Z,2.83
2023-04-24T02:14:46.321Z,2.70
2023-04-24T02:17:14.282Z,3.90
2023-04-24T02:19:41.376Z,3.78
2023-04-24T02:22:15.410Z,2.55
2023-04-24T02:24:43.047Z,2.65
2023-04-24T02:27:09.976Z,2.80
2023-04-24T02:29:36.891Z,2.72
2023-04-24T02:32:04.384Z,2.70
2023-04-24T02:34:31.705Z,2.72
2023-04-24T02:37:00.353Z,2.83
2023-04-24T02:39:27.251Z,2.95
2023-04-24T02:41:54.905Z,3.63
2023-04-24T02:44:22.754Z,2.92
2023-04-24T02:46:50.056Z,3.40
2023-04-24T02:49:17.283Z,2.85
2023-04-24T02:51:44.340Z,2.60
2023-04-24T02:54:11.920Z,2.65
2023-04-24T02:56:38.889Z,4.22
2023-04-24T02:59:07.598Z,2.85
2023-04-24T03:01:34.981Z,2.83
2023-04-24T03:04:02.591Z,2.92
2023-04-24T03:06:29.903Z,3.60
2023-04-24T03:08:56.766Z,3.25
2023-04-24T03:11:23.684Z,3.15
2023-04-24T03:13:50.748Z,3.42
2023-04-24T03:16:17.686Z,3.03
2023-04-24T03:18:44.679Z,3.35
2023-04-24T03:21:12.677Z,3.22
2023-04-24T03:23:39.857Z,3.00
2023-04-24T03:26:07.851Z,3.38
2023-04-24T03:28:37.530Z,2.92
2023-04-24T03:31:05.328Z,4.20
2023-04-24T03:33:37.104Z,2.90
2023-04-24T03:36:05.956Z,2.90
2023-04-24T03:38:41.107Z,4.15
2023-04-24T03:41:23.571Z,3.08
2023-04-24T03:43:54.904Z,3.30
2023-04-24T03:46:21.912Z,2.92
2023-04-24T03:48:54.818Z,4.25
2023-04-24T03:51:28.787Z,2.97
2023-04-24T03:54:00.164Z,3.40
2023-04-24T03:58:56.666Z,3.10
2023-04-24T04:01:24.072Z,3.17
2023-04-24T04:03:59.932Z,4.47
2023-04-24T04:06:28.371Z,3.28
2023-04-24T04:08:56.498Z,3.45
2023-04-24T04:11:24.921Z,3.50
2023-04-24T04:13:51.965Z,3.65
2023-04-24T04:16:21.634Z,4.93
2023-04-24T04:18:51.731Z,4.03
2023-04-24T04:21:18.765Z,4.03
2023-04-24T04:23:46.203Z,4.00
2023-04-24T04:26:22.071Z,4.65
2023-04-24T04:29:07.695Z,4.68
2023-04-24T04:31:37.791Z,4.15
2023-04-24T04:34:09.009Z,5.25
2023-04-24T04:36:37.725Z,5.18
2023-04-24T04:39:19.654Z,4.47
2023-04-24T04:41:57.809Z,6.05
2023-04-24T04:44:30.412Z,4.05
2023-04-24T04:46:59.486Z,4.95
2023-04-24T04:49:29.485Z,6.20
2023-04-24T04:51:56.832Z,6.38
2023-04-24T04:54:26.218Z,4.05
2023-04-24T04:56:53.329Z,5.85
2023-04-24T04:59:20.438Z,5.80
2023-04-24T05:01:49.958Z,5.80
2023-04-24T05:04:17.861Z,6.85
2023-04-24T05:06:45.176Z,6.80
2023-04-24T05:09:12.494Z,6.47
2023-04-24T05:11:50.958Z,5.88
2023-04-24T05:14:18.905Z,6.28
2023-04-24T05:16:46.314Z,6.72
2023-04-24T05:19:15.709Z,6.43
2023-04-24T05:21:42.740Z,6.07
2023-04-24T05:24:10.864Z,6.65
2023-04-24T05:27:00.108Z,7.22
2023-04-24T05:29:40.054Z,7.30
2023-04-24T05:32:07.582Z,6.35
2023-04-24T05:34:35.823Z,7.10
2023-04-24T05:37:03.969Z,6.53
2023-04-24T05:39:30.870Z,11.50
2023-04-24T05:41:59.175Z,8.10
2023-04-24T05:44:26.730Z,7.35
2023-04-24T05:46:59.379Z,7.97
2023-04-24T05:49:26.941Z,8.85
2023-04-24T05:51:54.572Z,10.63
2023-04-24T05:54:21.778Z,9.43
2023-04-24T05:56:48.885Z,10.80
2023-04-24T05:59:22.691Z,8.95
2023-04-24T06:01:50.866Z,8.98
2023-04-24T06:06:51.713Z,11.50
2023-04-24T06:09:19.003Z,12.55
2023-04-24T06:11:45.930Z,12.23
2023-04-24T06:14:14.632Z,11.48
2023-04-24T06:17:17.290Z,11.07
2023-04-24T06:19:46.118Z,10.70
2023-04-24T06:22:13.322Z,11.95
2023-04-24T06:24:43.346Z,11.77
2023-04-24T06:27:10.517Z,11.00
2023-04-24T06:29:38.242Z,10.48
2023-04-24T06:32:05.377Z,13.25
2023-04-24T06:34:34.935Z,10.32
2023-04-24T06:37:02.395Z,12.10
2023-04-24T06:39:29.271Z,10.52
2023-04-24T06:41:56.964Z,11.32
2023-04-24T06:44:24.639Z,11.68
2023-04-24T06:46:51.595Z,9.43
2023-04-24T06:49:18.559Z,12.82
2023-04-24T06:51:45.482Z,9.73
2023-04-24T06:54:12.626Z,11.07
2023-04-24T06:56:39.680Z,10.98
2023-04-24T06:59:06.616Z,10.25
2023-04-24T07:01:33.605Z,10.05
2023-04-24T07:04:00.826Z,10.30
2023-04-24T07:06:28.368Z,11.30
2023-04-24T07:08:55.415Z,10.05
2023-04-24T07:11:23.183Z,11.75
2023-04-24T07:13:50.268Z,11.73
2023-04-24T07:16:17.355Z,11.88
2023-04-24T07:18:44.639Z,13.73
2023-04-24T07:21:12.257Z,13.77
2023-04-24T07:23:39.225Z,9.60
2023-04-24T07:26:06.317Z,12.05
2023-04-24T07:28:33.236Z,9.88
2023-04-24T07:31:00.872Z,13.20
2023-04-24T07:33:28.070Z,12.25
2023-04-24T07:35:55.260Z,10.50
2023-04-24T07:38:23.079Z,11.70
2023-04-24T07:40:50.614Z,13.93
2023-04-24T07:43:17.590Z,9.57
2023-04-24T07:45:44.980Z,11.85
2023-04-24T07:48:11.979Z,11.05
2023-04-24T07:50:42.224Z,9.25
2023-04-24T07:53:09.195Z,10.45
2023-04-24T07:55:36.172Z,11.95
2023-04-24T07:58:03.250Z,9.80
2023-04-24T08:00:30.536Z,9.63
2023-04-24T08:02:57.668Z,8.25
2023-04-24T08:05:26.621Z,10.50
2023-04-24T08:07:53.956Z,10.32
2023-04-24T08:10:22.165Z,10.90
2023-04-24T08:12:49.290Z,10.88
2023-04-24T08:15:16.247Z,8.65
2023-04-24T08:17:43.391Z,7.28
2023-04-24T08:20:16.614Z,11.60
2023-04-24T08:22:44.602Z,9.45
2023-04-24T08:25:12.146Z,8.65
2023-04-24T08:27:39.680Z,8.52
2023-04-24T08:30:08.329Z,10.32
2023-04-24T08:32:35.341Z,8.80
2023-04-24T08:35:02.381Z,10.65
2023-04-24T08:37:29.543Z,9.13
2023-04-24T08:39:56.580Z,8.40
2023-04-24T08:42:23.547Z,8.27
2023-04-24T08:44:51.202Z,6.75
2023-04-24T08:47:19.057Z,8.68
2023-04-24T08:49:46.719Z,7.40
2023-04-24T08:52:14.318Z,8.13
2023-04-24T08:54:44.454Z,10.32
2023-04-24T08:57:12.937Z,8.38
2023-04-24T08:59:40.838Z,9.02
2023-04-24T09:02:12.708Z,8.35
2023-04-24T09:04:41.864Z,9.18
2023-04-24T09:07:11.641Z,8.63
2023-04-24T09:09:40.004Z,8.65
2023-04-24T09:12:07.479Z,8.88
2023-04-24T09:14:34.543Z,9.82
2023-04-24T09:17:01.536Z,8.10
2023-04-24T09:19:28.738Z,9.13
2023-04-24T09:21:55.818Z,7.50
2023-04-24T09:24:23.724Z,6.70
2023-04-24T09:26:59.648Z,7.30
2023-04-24T09:29:26.719Z,6.88
2023-04-24T09:31:53.749Z,6.72
2023-04-24T09:34:26.398Z,6.30
2023-04-24T09:36:54.714Z,6.85
2023-04-24T09:39:21.701Z,6.15
2023-04-24T09:42:00.642Z,8.60
2023-04-24T09:44:29.355Z,7.47
2023-04-24T09:46:58.852Z,6.38
2023-04-24T09:49:27.803Z,6.82
2023-04-24T09:52:10.177Z,6.45
2023-04-24T09:54:38.336Z,6.95
2023-04-24T09:57:05.647Z,7.88
2023-04-24T09:59:33.035Z,6.68
2023-04-24T10:02:01.815Z,6.50
2023-04-24T10:04:29.957Z,6.50
2023-04-24T10:06:58.438Z,7.28
2023-04-24T10:09:27.843Z,5.85
2023-04-24T10:11:56.077Z,6.93
2023-04-24T10:14:25.356Z,6.28
2023-04-24T10:16:55.709Z,6.53
2023-04-24T10:19:26.811Z,7.22
2023-04-24T10:21:55.606Z,6.20
2023-04-24T10:24:22.780Z,8.32
2023-04-24T10:26:49.855Z,8.98
2023-04-24T10:29:19.915Z,6.18
2023-04-24T10:31:47.911Z,5.53
2023-04-24T10:34:18.727Z,7.60
2023-04-24T10:36:54.314Z,5.43
2023-04-24T10:39:27.469Z,6.55
2023-04-24T10:41:58.418Z,7.68
2023-04-24T10:44:25.831Z,7.80
2023-04-24T10:46:57.241Z,6.78
2023-04-24T10:49:35.691Z,7.10
2023-04-24T10:52:07.672Z,5.90
2023-04-24T10:54:48.326Z,6.35
2023-04-24T10:57:21.747Z,7.25
2023-04-24T11:00:13.796Z,6.60
2023-04-24T11:02:49.280Z,6.65
2023-04-24T11:05:18.634Z,6.22
2023-04-24T11:08:31.632Z,7.25
2023-04-24T11:11:04.772Z,6.05
2023-04-24T11:13:59.700Z,6.57
2023-04-24T11:16:51.234Z,6.43
2023-04-24T11:19:18.177Z,6.07
2023-04-24T11:22:04.743Z,5.45
2023-04-24T11:24:40.420Z,6.40
2023-04-24T11:27:20.591Z,7.22
2023-04-24T11:29:56.090Z,8.20
2023-04-24T11:32:35.064Z,5.72
2023-04-24T11:35:31.622Z,5.53
2023-04-24T11:40:29.953Z,5.00
2023-04-24T11:42:57.184Z,5.45
2023-04-24T11:45:34.289Z,5.05
2023-04-24T11:48:04.087Z,5.28
2023-04-24T11:50:31.472Z,4.75
2023-04-24T11:52:58.709Z,3.72
2023-04-24T11:55:28.340Z,3.58
2023-04-24T11:57:59.072Z,3.30
2023-04-24T12:00:29.730Z,3.10
2023-04-24T12:03:12.449Z,3.10
2023-04-24T12:05:40.709Z,3.25
2023-04-24T12:08:07.927Z,3.10
2023-04-24T12:10:36.120Z,3.42
2023-04-24T12:13:03.786Z,3.15
2023-04-24T12:15:31.083Z,3.58
2023-04-24T12:17:58.878Z,3.20
2023-04-24T12:20:33.814Z,3.40
2023-04-24T12:23:02.605Z,3.60
2023-04-24T12:25:32.883Z,4.72
2023-04-24T12:28:06.188Z,4.40
2023-04-24T12:30:41.075Z,3.25
2023-04-24T12:33:08.371Z,4.00
2023-04-24T12:35:36.750Z,3.47
2023-04-24T12:38:18.931Z,4.45
2023-04-24T12:40:45.970Z,5.05
2023-04-24T12:43:18.187Z,5.43
2023-04-24T12:45:46.139Z,4.63
2023-04-24T12:48:15.231Z,5.53
2023-04-24T12:50:46.074Z,6.57
2023-04-24T12:53:14.226Z,6.28
2023-04-24T12:55:41.511Z,6.28
2023-04-24T12:58:08.961Z,6.13
2023-04-24T13:00:36.044Z,6.53
2023-04-24T13:03:03.781Z,5.18
2023-04-24T13:05:31.153Z,5.22
2023-04-24T13:07:58.783Z,5.82
2023-04-24T13:10:25.832Z,6.40
2023-04-24T13:12:52.901Z,6.55
2023-04-24T13:15:19.937Z,6.47
2023-04-24T13:17:46.888Z,6.40
2023-04-24T13:20:13.913Z,6.35
2023-04-24T13:22:40.926Z,6.05
2023-04-24T13:25:08.379Z,7.53
2023-04-24T13:27:35.332Z,5.82
2023-04-24T13:30:02.354Z,5.40
2023-04-24T13:32:29.908Z,6.85
2023-04-24T13:34:58.215Z,6.88
2023-04-24T13:37:25.100Z,6.57
2023-04-24T13:39:52.564Z,5.40
2023-04-24T13:42:20.951Z,6.20
2023-04-24T13:44:47.992Z,5.50
2023-04-24T13:47:14.851Z,4.97
2023-04-24T13:49:41.957Z,8.85
2023-04-24T13:52:08.902Z,6.13
2023-04-24T13:54:35.868Z,4.72
2023-04-24T13:57:04.245Z,5.30
2023-04-24T13:59:31.218Z,5.78
2023-04-24T14:01:58.353Z,5.95
2023-04-24T14:04:25.949Z,5.50
2023-04-24T14:06:53.173Z,5.00
2023-04-24T14:09:20.048Z,5.13
2023-04-24T14:11:47.105Z,8.23
2023-04-24T14:14:14.007Z,7.07
2023-04-24T14:16:41.303Z,6.13
2023-04-24T14:19:08.278Z,6.70
2023-04-24T14:21:35.346Z,6.70
2023-04-24T14:24:02.282Z,5.18
2023-04-24T14:26:29.184Z,5.45
2023-04-24T14:29:04.115Z,6.70
2023-04-24T14:31:40.970Z,6.10
2023-04-24T14:34:07.938Z,6.65
2023-04-24T14:36:34.801Z,7.38
2023-04-24T14:39:04.475Z,6.30
2023-04-24T14:41:32.478Z,6.53
2023-04-24T14:43:59.360Z,6.32
2023-04-24T14:46:26.427Z,7.40
2023-04-24T14:48:53.527Z,7.60
2023-04-24T14:51:20.611Z,5.38
2023-04-24T14:53:48.672Z,6.63
2023-04-24T14:56:16.265Z,5.78
2023-04-24T14:58:43.293Z,5.97
2023-04-24T15:01:10.297Z,6.30
2023-04-24T15:03:37.574Z,5.30
2023-04-24T15:06:05.010Z,5.88
2023-04-24T15:08:31.863Z,5.43
2023-04-24T15:10:58.837Z,7.32
2023-04-24T15:13:25.905Z,6.53
2023-04-24T15:15:52.868Z,5.30
2023-04-24T15:18:19.815Z,5.07
2023-04-24T15:20:47.027Z,4.85
2023-04-24T15:23:13.916Z,5.05
2023-04-24T15:25:41.024Z,4.55
2023-04-24T15:28:07.961Z,5.03
2023-04-24T15:30:34.878Z,4.07
2023-04-24T15:33:02.713Z,4.78
2023-04-24T15:35:29.774Z,4.60
2023-04-24T15:37:56.925Z,4.97
2023-04-24T15:40:23.963Z,4.18
2023-04-24T15:42:51.103Z,4.85
2023-04-24T15:45:18.096Z,5.63
2023-04-24T15:47:49.489Z,4.68
2023-04-24T15:50:17.075Z,4.45
2023-04-24T15:52:45.804Z,7.93
2023-04-24T15:55:13.299Z,4.78
2023-04-24T15:57:40.849Z,5.97
2023-04-24T16:00:09.724Z,5.45
2023-04-24T16:02:40.092Z,5.15
2023-04-24T16:05:07.751Z,4.50
2023-04-24T16:07:35.366Z,4.05
2023-04-24T16:10:05.062Z,4.55
2023-04-24T16:12:32.027Z,4.07
2023-04-24T16:14:59.260Z,3.75
2023-04-24T16:17:26.365Z,4.30
2023-04-24T16:19:53.421Z,4.70
2023-04-24T16:22:20.377Z,5.05
2023-04-24T16:24:48.064Z,4.47
2023-04-24T16:27:15.931Z,4.93
2023-04-24T16:29:42.871Z,4.53
2023-04-24T16:32:10.663Z,4.38
2023-04-24T16:34:37.921Z,5.00
2023-04-24T16:37:05.555Z,5.90
2023-04-24T16:39:32.545Z,5.90
2023-04-24T16:42:00.408Z,4.53
2023-04-24T16:44:28.211Z,4.38
2023-04-24T16:46:55.304Z,3.92
2023-04-24T16:49:23.773Z,6.13
2023-04-24T16:51:51.011Z,4.80
2023-04-24T16:54:17.971Z,4.75
2023-04-24T16:56:44.983Z,6.82
2023-04-24T16:59:12.299Z,4.90
2023-04-24T17:01:39.240Z,4.60
2023-04-24T17:04:06.559Z,4.65
2023-04-24T17:06:33.583Z,3.97
2023-04-24T17:09:00.738Z,3.90
2023-04-24T17:11:29.922Z,4.32
2023-04-24T17:13:59.712Z,5.22
2023-04-24T17:16:27.455Z,3.58
2023-04-24T17:18:54.690Z,4.53
2023-04-24T17:21:21.630Z,4.05
2023-04-24T17:23:48.526Z,4.35
2023-04-24T17:26:15.547Z,4.57
2023-04-24T17:28:42.468Z,4.15
2023-04-24T17:31:09.409Z,4.35
2023-04-24T17:33:36.330Z,5.57
2023-04-24T17:36:03.237Z,4.32
2023-04-24T17:38:30.449Z,4.18
2023-04-24T17:40:58.300Z,5.15
2023-04-24T17:43:25.268Z,4.25
2023-04-24T17:45:57.963Z,4.80
2023-04-24T17:48:25.729Z,8.55
2023-04-24T17:50:53.081Z,8.55
2023-04-24T17:53:21.546Z,10.68
2023-04-24T17:55:48.614Z,22.02
2023-04-24T17:58:15.884Z,8.43
2023-04-24T18:00:43.028Z,8.48
2023-04-24T18:03:10.259Z,7.03
2023-04-24T18:05:38.913Z,4.78
2023-04-24T18:08:06.321Z,5.65
2023-04-24T18:10:37.411Z,4.70
2023-04-24T18:13:05.655Z,4.32
2023-04-24T18:15:32.696Z,5.30
2023-04-24T18:17:59.896Z,5.28
2023-04-24T18:20:27.227Z,4.97
2023-04-24T18:22:54.740Z,4.18
2023-04-24T18:25:26.653Z,4.93
2023-04-24T18:27:54.832Z,4.55
2023-04-24T18:30:23.010Z,4.55
2023-04-24T18:32:52.922Z,5.40
2023-04-24T18:35:21.223Z,5.40
2023-04-24T18:37:48.782Z,4.25
2023-04-24T18:40:16.299Z,4.57
2023-04-24T18:42:43.921Z,4.38
2023-04-24T18:45:14.734Z,3.95
2023-04-24T18:47:42.963Z,3.13
2023-04-24T18:50:11.084Z,2.67
2023-04-24T18:52:38.171Z,4.03
2023-04-24T18:55:06.871Z,3.67
2023-04-24T18:57:34.052Z,4.05
2023-04-24T19:00:01.469Z,4.13
2023-04-24T19:02:28.589Z,3.35
2023-04-24T19:04:55.715Z,3.95
2023-04-24T19:07:22.800Z,3.63
2023-04-24T19:09:49.713Z,3.40
2023-04-24T19:12:16.840Z,3.85
2023-04-24T19:14:43.779Z,4.53
2023-04-24T19:17:11.082Z,4.35
2023-04-24T19:19:38.031Z,4.28
2023-04-24T19:22:05.303Z,3.85
2023-04-24T19:24:33.601Z,3.78
2023-04-24T19:27:01.607Z,3.60
2023-04-24T19:29:28.661Z,4.63
2023-04-24T19:31:57.895Z,4.90
2023-04-24T19:34:26.050Z,3.85
2023-04-24T19:36:53.194Z,4.35
2023-04-24T19:39:20.221Z,4.45
2023-04-24T19:41:47.192Z,4.07
2023-04-24T19:44:15.538Z,5.47
2023-04-24T19:46:42.741Z,4.20
2023-04-24T19:49:09.826Z,4.00
2023-04-24T19:51:37.548Z,4.53
2023-04-24T19:54:06.215Z,3.67
2023-04-24T19:56:33.476Z,4.50
2023-04-24T19:59:01.065Z,4.03
2023-04-24T20:01:28.321Z,3.70
2023-04-24T20:03:55.405Z,4.18
2023-04-24T20:06:22.470Z,5.45
2023-04-24T20:08:49.681Z,2.75
2023-04-24T20:11:17.083Z,4.78
2023-04-24T20:13:44.092Z,3.92
2023-04-24T20:16:11.593Z,4.07
2023-04-24T20:18:38.754Z,4.35
2023-04-24T20:21:05.779Z,3.33
2023-04-24T20:23:32.735Z,3.63
2023-04-24T20:25:59.741Z,3.70
2023-04-24T20:28:27.821Z,5.22
2023-04-24T20:30:54.929Z,3.90
2023-04-24T20:33:22.340Z,4.90
2023-04-24T20:35:49.664Z,3.40
2023-04-24T20:38:18.475Z,4.07
2023-04-24T20:40:57.207Z,5.68
2023-04-24T20:43:28.890Z,4.72
2023-04-24T20:45:58.101Z,5.13
2023-04-24T20:48:26.527Z,3.95
2023-04-24T20:50:53.940Z,3.10
2023-04-24T20:53:21.525Z,4.05
2023-04-24T20:55:48.908Z,5.88
2023-04-24T20:58:18.555Z,5.30
2023-04-24T21:00:46.770Z,4.97
2023-04-24T21:03:13.814Z,4.65
2023-04-24T21:05:40.730Z,4.07
2023-04-24T21:08:07.630Z,4.78
2023-04-24T21:10:34.567Z,3.67
2023-04-24T21:13:01.552Z,4.47
2023-04-24T21:15:29.271Z,4.13
2023-04-24T21:17:56.807Z,3.60
2023-04-24T21:20:23.760Z,4.55
2023-04-24T21:22:50.666Z,4.28
2023-04-24T21:25:17.661Z,5.60
2023-04-24T21:27:44.656Z,4.30
2023-04-24T21:30:12.459Z,4.45
2023-04-24T21:32:40.478Z,5.15
2023-04-24T21:35:07.869Z,5.45
2023-04-24T21:37:35.827Z,3.85
2023-04-24T21:40:04.784Z,3.90
2023-04-24T21:42:31.817Z,4.72
2023-04-24T21:44:58.832Z,4.70
2023-04-24T21:47:25.852Z,4.43
2023-04-24T21:49:52.821Z,4.13
2023-04-24T21:52:20.087Z,5.18
2023-04-24T21:54:46.965Z,5.30
2023-04-24T21:57:14.088Z,6.05
2023-04-24T21:59:41.040Z,5.15
2023-04-24T22:02:07.965Z,4.53
2023-04-24T22:04:35.100Z,5.82
2023-04-24T22:07:02.114Z,4.72
2023-04-24T22:09:29.059Z,4.47
2023-04-24T22:11:56.033Z,4.80
2023-04-24T22:14:22.972Z,6.07
2023-04-24T22:16:50.255Z,5.32
2023-04-24T22:19:17.236Z,6.70
2023-04-24T22:21:44.281Z,5.80
2023-04-24T22:24:11.216Z,6.50
2023-04-24T22:26:38.160Z,5.63
2023-04-24T22:29:05.239Z,6.32
2023-04-24T22:31:32.382Z,6.18
2023-04-24T22:33:59.360Z,6.53
2023-04-24T22:36:27.020Z,5.05
2023-04-24T22:38:54.285Z,5.50
2023-04-24T22:41:22.020Z,3.47
2023-04-24T22:43:49.286Z,5.80
2023-04-24T22:46:17.316Z,4.97
2023-04-24T22:48:45.561Z,5.43
2023-04-24T22:51:12.508Z,5.45
2023-04-24T22:53:39.593Z,6.43
2023-04-24T22:56:07.098Z,6.35
2023-04-24T22:58:34.033Z,5.75
2023-04-24T23:01:01.470Z,6.18
2023-04-24T23:03:28.628Z,4.75
2023-04-24T23:05:55.777Z,6.50
2023-04-24T23:08:22.670Z,5.88
2023-04-24T23:10:49.676Z,5.57
2023-04-24T23:13:16.667Z,5.07
2023-04-24T23:15:43.663Z,5.15
2023-04-24T23:18:11.574Z,5.78
2023-04-24T23:20:39.007Z,6.55
2023-04-24T23:23:06.003Z,6.28
2023-04-24T23:25:33.165Z,4.07
2023-04-24T23:28:00.120Z,6.80
2023-04-24T23:30:27.250Z,4.32
2023-04-24T23:32:54.299Z,5.65
2023-04-24T23:35:21.268Z,5.82
2023-04-24T23:37:48.224Z,5.95
2023-04-24T23:40:15.273Z,6.22
2023-04-24T23:42:42.157Z,5.05
2023-04-24T23:45:10.860Z,6.32
2023-04-24T23:47:38.341Z,6.43
2023-04-24T23:50:06.045Z,5.38
2023-04-24T23:52:35.183Z,5.28
2023-04-24T23:55:04.707Z,6.28
2023-04-24T23:57:32.162Z,6.43
2023-04-24T23:59:59.104Z,7.28
